Time;durP1;ratioP1;P1;durP2;ratioP2;P2;SDS_P1;SDS_P2;PMS_P1;PMS_P2;Temp;Humidity;BMP_temperature;BMP_pressure;BME280_temperature;BME280_humidity;BME280_pressure;Samples;Min_cycle;Max_cycle;Signal;HPM_P1;HPM_P2
2023/02/28 00:00:49;;;;;;;6.60;2.13;;;3.90;99.90;;;;;;4940655;28;20047;-58
2023/02/28 00:03:16;;;;;;;8.63;2.50;;;3.80;99.90;;;;;;4965148;28;20378;-56
2023/02/28 00:05:42;;;;;;;4.72;2.33;;;3.80;99.90;;;;;;4950291;29;20090;-57
2023/02/28 00:08:09;;;;;;;12.90;1.80;;;3.90;99.90;;;;;;4933995;29;20048;-56
2023/02/28 00:10:36;;;;;;;3.83;2.03;;;3.80;99.90;;;;;;4952018;29;20039;-57
2023/02/28 00:13:05;;;;;;;8.10;1.75;;;3.80;99.90;;;;;;4951553;29;20069;-57
2023/02/28 00:15:32;;;;;;;5.65;1.80;;;3.70;99.90;;;;;;4951729;29;20050;-57
2023/02/28 00:17:59;;;;;;;4.65;1.73;;;3.70;99.90;;;;;;4970519;28;20137;-57
2023/02/28 00:20:26;;;;;;;7.80;1.67;;;3.70;99.90;;;;;;4934557;29;20479;-57
2023/02/28 00:22:53;;;;;;;5.95;2.28;;;3.70;99.90;;;;;;4952022;29;20078;-55
2023/02/28 00:25:24;;;;;;;14.95;2.72;;;3.70;99.90;;;;;;4954205;28;20044;-56
2023/02/28 00:27:51;;;;;;;8.38;2.00;;;3.60;99.90;;;;;;4932879;29;20058;-58
2023/02/28 00:30:19;;;;;;;9.00;2.25;;;3.60;99.90;;;;;;4962229;28;20047;-59
2023/02/28 00:32:46;;;;;;;7.43;1.90;;;3.60;99.90;;;;;;4951277;29;20047;-57
2023/02/28 00:35:13;;;;;;;7.75;2.00;;;3.60;99.90;;;;;;4950810;29;20138;-57
2023/02/28 00:37:40;;;;;;;6.45;2.10;;;3.60;99.90;;;;;;4951054;29;20054;-55
2023/02/28 00:40:07;;;;;;;5.30;2.40;;;3.60;99.90;;;;;;4950164;28;20513;-57
2023/02/28 00:42:34;;;;;;;8.65;2.20;;;3.50;99.90;;;;;;4951298;29;20083;-56
2023/02/28 00:45:03;;;;;;;8.27;2.10;;;3.50;99.90;;;;;;4950622;29;20060;-57
2023/02/28 00:47:30;;;;;;;10.65;2.38;;;3.50;99.90;;;;;;4943100;28;20153;-55
2023/02/28 00:49:57;;;;;;;11.88;2.45;;;3.50;99.90;;;;;;4963076;28;20456;-57
2023/02/28 00:52:24;;;;;;;9.80;2.13;;;3.50;99.90;;;;;;4951483;29;20134;-57
2023/02/28 00:54:51;;;;;;;8.75;2.90;;;3.40;99.90;;;;;;4950452;29;20058;-55
2023/02/28 00:57:17;;;;;;;4.75;1.80;;;3.50;99.90;;;;;;4951176;29;20547;-55
2023/02/28 00:59:44;;;;;;;9.00;2.97;;;3.40;99.90;;;;;;4950969;29;20126;-52
2023/02/28 01:02:11;;;;;;;8.05;2.60;;;3.40;99.90;;;;;;4952509;28;20043;-55
2023/02/28 01:04:38;;;;;;;11.00;2.28;;;3.40;99.90;;;;;;4969471;28;20050;-58
2023/02/28 01:07:04;;;;;;;10.75;2.60;;;3.30;99.90;;;;;;4950792;29;20062;-55
2023/02/28 01:09:31;;;;;;;6.20;2.40;;;3.30;99.90;;;;;;4951184;29;20047;-57
2023/02/28 01:11:58;;;;;;;8.48;2.33;;;3.40;99.90;;;;;;4950706;29;20118;-57
2023/02/28 01:14:24;;;;;;;6.13;2.25;;;3.30;99.90;;;;;;4950231;29;20055;-57
2023/02/28 01:16:51;;;;;;;8.25;2.03;;;3.30;99.90;;;;;;4950145;29;20045;-56
2023/02/28 01:19:18;;;;;;;9.70;2.05;;;3.20;99.90;;;;;;4950881;29;20051;-61
2023/02/28 01:21:45;;;;;;;16.20;3.00;;;3.20;99.90;;;;;;4950752;29;20146;-57
2023/02/28 01:24:11;;;;;;;14.27;2.03;;;3.20;99.90;;;;;;4950522;29;20153;-57
2023/02/28 01:26:38;;;;;;;12.38;2.63;;;3.20;99.90;;;;;;4950585;29;20050;-57
2023/02/28 01:29:06;;;;;;;15.82;3.65;;;3.10;99.90;;;;;;4950588;29;20058;-57
2023/02/28 01:31:33;;;;;;;8.05;2.03;;;3.10;99.90;;;;;;4950447;29;20065;-59
2023/02/28 01:34:00;;;;;;;6.22;1.90;;;3.10;99.90;;;;;;4950069;29;20051;-55
2023/02/28 01:36:26;;;;;;;7.45;1.92;;;3.10;99.90;;;;;;4606208;28;10000045;-58
2023/02/28 01:38:53;;;;;;;10.68;2.08;;;3.10;99.90;;;;;;4949342;29;20071;-57
2023/02/28 01:41:25;;;;;;;8.60;2.88;;;3.10;99.90;;;;;;4950307;29;20503;-57
2023/02/28 01:44:03;;;;;;;6.35;1.83;;;3.10;99.90;;;;;;4917717;29;20047;-57
2023/02/28 01:46:31;;;;;;;3.40;1.80;;;3.10;99.90;;;;;;4933926;29;20047;-56
2023/02/28 01:49:12;;;;;;;11.82;2.67;;;3.10;99.90;;;;;;4951393;28;20407;-57
2023/02/28 01:51:54;;;;;;;6.00;2.05;;;3.10;99.90;;;;;;4919776;29;20062;-57
2023/02/28 01:54:24;;;;;;;5.22;1.65;;;3.10;99.90;;;;;;4950843;29;20467;-56
2023/02/28 01:57:05;;;;;;;7.75;2.78;;;3.10;99.90;;;;;;4934096;29;20054;-57
2023/02/28 02:00:07;;;;;;;4.85;1.73;;;3.10;99.90;;;;;;4908641;29;20528;-58
2023/02/28 02:02:33;;;;;;;7.72;2.00;;;3.00;99.90;;;;;;4909400;29;20047;-57
2023/02/28 02:05:05;;;;;;;7.95;1.92;;;3.00;99.90;;;;;;4949606;29;20103;-57
2023/02/28 02:07:33;;;;;;;5.95;2.17;;;3.00;99.90;;;;;;4911739;29;20148;-57
2023/02/28 02:10:21;;;;;;;6.35;1.92;;;3.00;99.90;;;;;;4895384;29;20508;-57
2023/02/28 02:13:12;;;;;;;6.28;1.73;;;3.00;99.90;;;;;;4911613;29;20048;-58
2023/02/28 02:16:00;;;;;;;5.45;1.80;;;3.00;99.90;;;;;;4911576;29;20060;-56
2023/02/28 02:18:51;;;;;;;9.25;2.38;;;2.90;99.90;;;;;;4910631;29;20098;-56
2023/02/28 02:21:33;;;;;;;10.23;2.15;;;2.90;99.90;;;;;;4911698;29;20563;-57
2023/02/28 02:24:11;;;;;;;;;;;3.00;99.90;;;;;;4911705;29;20056;-57
2023/02/28 02:27:13;;;;;;;5.90;2.13;;;2.90;99.90;;;;;;4911942;29;19923;-58
2023/02/28 02:30:14;;;;;;;7.00;1.73;;;2.90;99.90;;;;;;4902702;29;20080;-58
2023/02/28 02:32:49;;;;;;;6.35;2.08;;;2.90;99.90;;;;;;4899759;29;20049;-58
2023/02/28 02:35:35;;;;;;;10.23;4.68;;;2.80;99.90;;;;;;4910400;29;20052;-57
2023/02/28 02:38:10;;;;;;;12.60;2.80;;;2.70;99.90;;;;;;4909571;29;20532;-56
2023/02/28 02:40:42;;;;;;;7.50;2.45;;;2.70;99.90;;;;;;4909854;29;20079;-56
2023/02/28 02:43:13;;;;;;;8.38;2.33;;;2.70;99.90;;;;;;4923591;29;20059;-57
2023/02/28 02:45:45;;;;;;;10.85;2.53;;;2.60;99.90;;;;;;4909932;29;20592;-56
2023/02/28 02:48:13;;;;;;;11.30;2.67;;;2.60;99.90;;;;;;4910356;29;20048;-57
2023/02/28 02:50:46;;;;;;;9.65;2.55;;;2.60;99.90;;;;;;4910224;29;20183;-58
2023/02/28 02:53:13;;;;;;;6.75;1.98;;;2.70;99.90;;;;;;4895274;29;20079;-57
2023/02/28 02:55:42;;;;;;;8.82;2.05;;;2.60;99.90;;;;;;4894503;29;20695;-58
2023/02/28 02:58:16;;;;;;;23.23;3.13;;;2.60;99.90;;;;;;4910694;29;20052;-58
2023/02/28 03:00:47;;;;;;;9.02;2.42;;;2.60;99.90;;;;;;4910000;29;20056;-57
2023/02/28 03:03:14;;;;;;;10.43;2.45;;;2.60;99.90;;;;;;4897615;29;20111;-58
2023/02/28 03:05:48;;;;;;;10.05;2.22;;;2.60;99.90;;;;;;4919809;29;20158;-59
2023/02/28 03:08:15;;;;;;;13.55;2.80;;;2.50;99.90;;;;;;4915395;29;20067;-57
2023/02/28 03:10:46;;;;;;;15.82;2.50;;;2.50;99.90;;;;;;4930973;29;20261;-58
2023/02/28 03:13:31;;;;;;;4.75;2.47;;;2.50;99.90;;;;;;4933928;29;20157;-56
2023/02/28 03:16:16;;;;;;;6.82;2.72;;;2.50;99.90;;;;;;4933412;29;20057;-58
2023/02/28 03:18:54;;;;;;;9.90;2.13;;;2.50;99.90;;;;;;4915540;29;20056;-58
2023/02/28 03:21:46;;;;;;;8.13;2.47;;;2.50;99.90;;;;;;4933317;29;20054;-56
2023/02/28 03:24:22;;;;;;;5.40;2.35;;;2.50;99.90;;;;;;4933794;29;20510;-58
2023/02/28 03:26:55;;;;;;;10.82;3.35;;;2.50;99.90;;;;;;4932815;29;20047;-57
2023/02/28 03:29:35;;;;;;;11.80;3.05;;;2.50;99.90;;;;;;4932698;29;20058;-58
2023/02/28 03:32:21;;;;;;;6.10;2.17;;;2.50;99.90;;;;;;4933604;29;20044;-57
2023/02/28 03:34:59;;;;;;;14.20;4.88;;;2.60;99.90;;;;;;4932039;29;20327;-57
2023/02/28 03:37:25;;;;;;;9.20;2.30;;;2.60;99.90;;;;;;4916776;29;20044;-56
2023/02/28 03:40:06;;;;;;;9.38;2.88;;;2.50;99.90;;;;;;4916701;29;20423;-58
2023/02/28 03:42:34;;;;;;;10.15;1.98;;;2.50;99.90;;;;;;4933472;29;20051;-58
2023/02/28 03:45:02;;;;;;;9.85;3.25;;;2.50;99.90;;;;;;4916199;29;20056;-58
2023/02/28 03:47:43;;;;;;;14.23;2.17;;;2.50;99.90;;;;;;4916092;29;20123;-58
2023/02/28 03:50:22;;;;;;;14.25;3.47;;;2.50;99.90;;;;;;4916666;29;20047;-57
2023/02/28 03:53:00;;;;;;;15.32;2.55;;;2.50;99.90;;;;;;4934441;29;20422;-59
2023/02/28 03:55:33;;;;;;;12.35;2.28;;;2.50;99.90;;;;;;4916748;29;20484;-59
2023/02/28 03:58:43;;;;;;;9.25;2.45;;;2.50;99.90;;;;;;4916486;29;20496;-58
2023/02/28 04:01:20;;;;;;;4.55;1.88;;;2.50;99.90;;;;;;4913075;29;20050;-58
2023/02/28 04:03:47;;;;;;;7.95;2.50;;;2.50;99.90;;;;;;4914700;29;20244;-55
2023/02/28 04:06:18;;;;;;;15.65;2.60;;;2.40;99.90;;;;;;4930995;29;20058;-59
2023/02/28 04:08:45;;;;;;;11.50;2.55;;;2.50;99.90;;;;;;4937498;29;20044;-59
2023/02/28 04:11:18;;;;;;;7.85;2.17;;;2.50;99.90;;;;;;4931572;29;20062;-58
2023/02/28 04:13:44;;;;;;;14.77;3.53;;;2.50;99.90;;;;;;4931191;29;20056;-58
2023/02/28 04:16:13;;;;;;;8.60;2.00;;;2.50;99.90;;;;;;4932636;29;20080;-57
2023/02/28 04:19:01;;;;;;;12.15;2.08;;;2.50;99.90;;;;;;4931643;29;20052;-57
2023/02/28 04:21:29;;;;;;;17.38;2.47;;;2.50;99.90;;;;;;4932449;29;20122;-58
2023/02/28 04:24:00;;;;;;;16.90;1.95;;;2.50;99.90;;;;;;4936422;29;20051;-58
2023/02/28 04:26:34;;;;;;;6.10;2.22;;;2.40;99.90;;;;;;4932510;29;20043;-58
2023/02/28 04:29:01;;;;;;;;;;;2.40;99.90;;;;;;4934942;29;20057;-57
2023/02/28 04:31:28;;;;;;;21.70;2.70;;;2.40;99.90;;;;;;4932932;29;19923;-56
2023/02/28 04:33:55;;;;;;;6.22;1.77;;;2.40;99.90;;;;;;4932087;29;20085;-56
2023/02/28 04:36:23;;;;;;;10.48;2.67;;;2.40;99.90;;;;;;4932987;29;20464;-56
2023/02/28 04:38:50;;;;;;;10.73;3.40;;;2.40;99.90;;;;;;4937162;29;20086;-54
2023/02/28 04:41:16;;;;;;;9.13;1.80;;;2.30;99.90;;;;;;4935165;29;20052;-54
2023/02/28 04:43:43;;;;;;;13.23;2.95;;;2.30;99.90;;;;;;4934703;29;20127;-57
2023/02/28 04:46:10;;;;;;;9.23;1.88;;;2.30;99.90;;;;;;4934804;29;20044;-57
2023/02/28 04:48:38;;;;;;;7.53;2.50;;;2.30;99.90;;;;;;4931367;29;20048;-56
2023/02/28 04:51:06;;;;;;;7.97;2.33;;;2.30;99.90;;;;;;4932611;29;20078;-57
2023/02/28 04:53:33;;;;;;;10.93;2.42;;;2.30;99.90;;;;;;4932301;29;20578;-57
2023/02/28 04:56:00;;;;;;;4.30;2.03;;;2.40;99.90;;;;;;4932645;29;20051;-58
2023/02/28 04:58:27;;;;;;;9.07;2.53;;;2.30;99.90;;;;;;4932450;29;20044;-58
2023/02/28 05:00:54;;;;;;;9.57;2.60;;;2.30;99.90;;;;;;4932591;29;20062;-54
2023/02/28 05:03:22;;;;;;;8.00;2.22;;;2.40;99.90;;;;;;4930719;29;20039;-56
2023/02/28 05:05:49;;;;;;;9.57;1.70;;;2.30;99.90;;;;;;4930880;29;20056;-58
2023/02/28 05:08:15;;;;;;;7.80;2.20;;;2.30;99.90;;;;;;4931728;29;20058;-54
2023/02/28 05:10:42;;;;;;;8.32;2.42;;;2.40;99.90;;;;;;4932331;29;20039;-57
2023/02/28 05:13:11;;;;;;;8.98;2.33;;;2.30;99.90;;;;;;4931844;29;20062;-57
2023/02/28 05:15:38;;;;;;;5.53;2.60;;;2.30;99.90;;;;;;4930801;29;20085;-57
2023/02/28 05:18:05;;;;;;;4.75;2.47;;;2.30;99.90;;;;;;4936954;29;20065;-54
2023/02/28 05:20:31;;;;;;;10.48;2.08;;;2.30;99.90;;;;;;4931517;29;20506;-54
2023/02/28 05:22:58;;;;;;;6.68;2.10;;;2.30;99.90;;;;;;4932357;29;20054;-54
2023/02/28 05:25:25;;;;;;;4.53;1.77;;;2.30;99.90;;;;;;4930759;29;20521;-56
2023/02/28 05:27:52;;;;;;;10.65;2.50;;;2.30;99.90;;;;;;4931983;29;20055;-52
2023/02/28 05:30:19;;;;;;;5.65;2.17;;;2.30;99.90;;;;;;4931466;29;20070;-57
2023/02/28 05:32:49;;;;;;;8.57;1.88;;;2.30;99.90;;;;;;4931937;29;20054;-56
2023/02/28 05:35:16;;;;;;;12.85;2.92;;;2.20;99.90;;;;;;4930151;29;20055;-58
2023/02/28 05:37:43;;;;;;;8.50;2.25;;;2.20;99.90;;;;;;4931580;29;20549;-57
2023/02/28 05:40:10;;;;;;;8.75;2.33;;;2.20;99.90;;;;;;4931263;29;20057;-56
2023/02/28 05:42:37;;;;;;;4.78;2.20;;;2.20;99.90;;;;;;4930500;29;20050;-56
2023/02/28 05:45:05;;;;;;;10.13;2.65;;;2.20;99.90;;;;;;4931344;29;20127;-55
2023/02/28 05:47:31;;;;;;;10.05;1.92;;;2.20;99.90;;;;;;4931301;29;20135;-56
2023/02/28 05:49:58;;;;;;;6.13;2.45;;;2.20;99.90;;;;;;4929813;29;20123;-55
2023/02/28 05:52:25;;;;;;;9.10;2.65;;;2.20;99.90;;;;;;4931346;29;20503;-56
2023/02/28 05:54:52;;;;;;;9.15;2.40;;;2.20;99.90;;;;;;4930894;29;20055;-57
2023/02/28 05:57:18;;;;;;;7.63;3.13;;;2.20;99.90;;;;;;4931007;29;20052;-57
2023/02/28 05:59:50;;;;;;;4.35;2.25;;;2.30;99.90;;;;;;4930940;29;20070;-55
2023/02/28 06:02:17;;;;;;;6.70;2.85;;;2.30;99.90;;;;;;4931328;29;20103;-55
2023/02/28 06:04:44;;;;;;;8.40;2.92;;;2.40;99.90;;;;;;4931359;29;20249;-53
2023/02/28 06:07:11;;;;;;;8.32;2.25;;;2.40;99.90;;;;;;4928787;29;20070;-54
2023/02/28 06:09:38;;;;;;;11.48;3.75;;;2.50;99.90;;;;;;4931162;29;20087;-57
2023/02/28 06:12:06;;;;;;;9.15;2.33;;;2.40;99.90;;;;;;4930612;29;20571;-57
2023/02/28 06:14:33;;;;;;;8.02;2.58;;;2.50;99.90;;;;;;4931116;29;20054;-57
2023/02/28 06:17:00;;;;;;;10.50;4.15;;;2.40;99.90;;;;;;4931005;29;20560;-58
2023/02/28 06:19:28;;;;;;;10.57;3.97;;;2.50;99.90;;;;;;4931387;29;20055;-59
2023/02/28 06:21:55;;;;;;;10.75;3.40;;;2.60;99.90;;;;;;4930548;29;20116;-57
2023/02/28 06:24:22;;;;;;;10.68;3.63;;;2.50;99.90;;;;;;4931130;29;20611;-58
2023/02/28 06:26:49;;;;;;;10.23;3.65;;;2.50;99.90;;;;;;4930759;29;20150;-58
2023/02/28 06:29:18;;;;;;;13.55;3.22;;;2.60;99.90;;;;;;4930883;29;20051;-57
2023/02/28 06:31:45;;;;;;;12.80;3.03;;;2.60;99.90;;;;;;4930726;29;20040;-57
2023/02/28 06:34:12;;;;;;;9.38;4.00;;;2.60;99.90;;;;;;4929600;29;20048;-57
2023/02/28 06:36:40;;;;;;;10.93;3.25;;;2.60;99.90;;;;;;4930529;29;20563;-57
2023/02/28 06:39:07;;;;;;;8.05;3.10;;;2.70;99.90;;;;;;4934957;29;20106;-56
2023/02/28 06:41:37;;;;;;;11.00;2.95;;;2.70;99.90;;;;;;4934744;29;20067;-58
2023/02/28 06:44:20;;;;;;;8.10;3.25;;;2.70;99.90;;;;;;4936969;29;20188;-57
2023/02/28 06:46:47;;;;;;;9.18;3.97;;;2.70;99.90;;;;;;4947147;28;20087;-58
2023/02/28 06:49:14;;;;;;;6.40;3.33;;;2.70;99.90;;;;;;4932413;29;20299;-57
2023/02/28 06:51:43;;;;;;;12.65;4.47;;;2.70;99.90;;;;;;4930052;29;20087;-58
2023/02/28 06:54:09;;;;;;;9.55;3.05;;;2.80;99.90;;;;;;4931587;29;20495;-57
2023/02/28 06:56:36;;;;;;;10.25;3.60;;;2.90;99.90;;;;;;4929487;29;20139;-56
2023/02/28 06:59:03;;;;;;;7.95;3.30;;;2.80;99.90;;;;;;4928288;29;20287;-56
2023/02/28 07:01:31;;;;;;;6.15;3.13;;;2.80;99.90;;;;;;4944450;29;20053;-57
2023/02/28 07:03:59;;;;;;;16.02;3.78;;;2.80;99.90;;;;;;4930913;29;20139;-57
2023/02/28 07:06:26;;;;;;;6.22;3.10;;;2.80;99.90;;;;;;4941619;29;20047;-56
2023/02/28 07:08:54;;;;;;;7.50;3.75;;;2.80;99.90;;;;;;4947516;28;20137;-57
2023/02/28 07:11:25;;;;;;;8.43;3.30;;;2.80;99.90;;;;;;4930594;29;20043;-57
2023/02/28 07:13:53;;;;;;;12.88;4.47;;;2.80;99.90;;;;;;4932302;29;20098;-60
2023/02/28 07:16:20;;;;;;;8.68;4.65;;;2.90;99.90;;;;;;4950012;29;20189;-58
2023/02/28 07:18:47;;;;;;;9.32;4.10;;;2.90;99.90;;;;;;4949617;29;20051;-58
2023/02/28 07:21:14;;;;;;;11.57;4.35;;;2.90;99.90;;;;;;4932464;29;20066;-55
2023/02/28 07:23:41;;;;;;;11.50;3.67;;;2.90;99.90;;;;;;4949114;29;20070;-56
2023/02/28 07:26:14;;;;;;;6.45;3.38;;;2.90;99.90;;;;;;4949983;29;20051;-58
2023/02/28 07:28:45;;;;;;;11.05;4.15;;;2.90;99.90;;;;;;4932251;29;20618;-58
2023/02/28 07:31:13;;;;;;;8.13;4.13;;;3.00;99.90;;;;;;4949836;29;20070;-58
2023/02/28 07:33:40;;;;;;;5.85;2.92;;;3.00;99.90;;;;;;4949564;29;20089;-58
2023/02/28 07:36:18;;;;;;;9.35;4.40;;;3.00;99.90;;;;;;4949645;29;20137;-56
2023/02/28 07:38:47;;;;;;;10.35;4.55;;;3.00;99.90;;;;;;4949336;29;20051;-54
2023/02/28 07:41:15;;;;;;;7.35;3.92;;;3.00;99.90;;;;;;4949452;29;20495;-56
2023/02/28 07:43:44;;;;;;;5.85;3.17;;;3.10;99.90;;;;;;4948349;29;20047;-56
2023/02/28 07:46:14;;;;;;;12.13;4.88;;;3.10;99.90;;;;;;4949131;29;20509;-54
2023/02/28 07:48:42;;;;;;;10.48;3.80;;;3.10;99.90;;;;;;4948602;28;20050;-58
2023/02/28 07:51:09;;;;;;;11.15;4.18;;;3.20;99.90;;;;;;4948831;29;20047;-57
2023/02/28 07:53:35;;;;;;;12.18;4.32;;;3.20;99.90;;;;;;4932060;29;20062;-55
2023/02/28 07:56:02;;;;;;;6.43;3.42;;;3.20;99.90;;;;;;4950733;29;20091;-55
2023/02/28 07:58:29;;;;;;;11.38;4.60;;;3.30;99.90;;;;;;4951457;29;20053;-59
2023/02/28 08:00:57;;;;;;;8.85;4.22;;;3.30;99.90;;;;;;4951223;29;20043;-55
2023/02/28 08:03:23;;;;;;;8.30;4.10;;;3.40;99.90;;;;;;4934670;29;20411;-54
2023/02/28 08:05:52;;;;;;;9.77;3.90;;;3.40;99.90;;;;;;4950941;29;20059;-54
2023/02/28 08:08:19;;;;;;;12.60;4.45;;;3.50;99.90;;;;;;4951324;29;20047;-54
2023/02/28 08:10:45;;;;;;;5.70;3.60;;;3.50;99.90;;;;;;4951228;29;20130;-54
2023/02/28 08:13:12;;;;;;;6.95;3.72;;;3.70;99.90;;;;;;4934384;29;20174;-56
2023/02/28 08:15:41;;;;;;;5.03;2.80;;;3.70;99.90;;;;;;4951005;29;20078;-55
2023/02/28 08:18:08;;;;;;;7.25;3.58;;;3.80;99.90;;;;;;4950988;29;20087;-58
2023/02/28 08:20:35;;;;;;;5.55;3.05;;;3.80;99.90;;;;;;4951210;29;20808;-57
2023/02/28 08:23:02;;;;;;;11.55;4.45;;;3.90;99.90;;;;;;4934401;29;20103;-59
2023/02/28 08:25:28;;;;;;;8.73;3.67;;;3.90;99.90;;;;;;4951392;29;20503;-58
2023/02/28 08:27:55;;;;;;;5.15;3.63;;;3.90;99.90;;;;;;4951293;29;20054;-57
2023/02/28 08:30:22;;;;;;;9.48;3.53;;;4.00;99.90;;;;;;4950143;29;20106;-58
2023/02/28 08:32:49;;;;;;;6.70;3.20;;;4.10;99.90;;;;;;4950935;29;20053;-56
2023/02/28 08:35:16;;;;;;;8.63;3.63;;;4.10;99.90;;;;;;4950899;29;20051;-55
2023/02/28 08:37:42;;;;;;;8.90;3.15;;;4.20;99.90;;;;;;4950622;29;20058;-55
2023/02/28 08:40:10;;;;;;;4.43;2.67;;;4.30;99.90;;;;;;4949951;29;20392;-60
2023/02/28 08:42:36;;;;;;;4.55;2.22;;;4.40;99.90;;;;;;4956787;28;20057;-56
2023/02/28 08:45:04;;;;;;;9.07;3.13;;;4.40;99.90;;;;;;4933737;29;20086;-56
2023/02/28 08:47:30;;;;;;;10.00;3.72;;;4.50;99.90;;;;;;4950780;29;20057;-59
2023/02/28 08:49:57;;;;;;;9.43;4.13;;;4.50;99.90;;;;;;4951076;29;20058;-55
2023/02/28 08:52:24;;;;;;;3.85;2.58;;;4.60;99.90;;;;;;4933458;29;20138;-56
2023/02/28 08:54:51;;;;;;;6.38;3.92;;;4.70;99.90;;;;;;4950260;29;20085;-57
2023/02/28 08:57:17;;;;;;;7.55;3.25;;;4.80;99.90;;;;;;4950077;29;20047;-56
2023/02/28 08:59:44;;;;;;;10.90;3.47;;;4.90;99.90;;;;;;4949968;28;20059;-56
2023/02/28 09:02:13;;;;;;;6.78;2.78;;;4.90;99.90;;;;;;4950329;29;20644;-56
2023/02/28 09:04:40;;;;;;;7.63;3.00;;;5.00;99.90;;;;;;4950111;29;20071;-57
2023/02/28 09:07:07;;;;;;;8.40;3.38;;;5.20;99.90;;;;;;4950078;29;20063;-60
2023/02/28 09:09:34;;;;;;;6.15;3.58;;;5.30;99.90;;;;;;4950460;29;20074;-56
2023/02/28 09:12:01;;;;;;;9.43;2.42;;;5.40;99.90;;;;;;4950287;29;20627;-57
2023/02/28 09:14:28;;;;;;;12.20;2.67;;;5.60;99.90;;;;;;4950253;29;20142;-56
2023/02/28 09:16:55;;;;;;;6.20;2.88;;;5.60;99.90;;;;;;4948525;29;20104;-57
2023/02/28 09:19:22;;;;;;;6.05;2.17;;;5.70;99.90;;;;;;4949415;29;20054;-57
2023/02/28 09:21:49;;;;;;;12.98;3.17;;;5.70;99.90;;;;;;4950363;29;20047;-55
2023/02/28 09:24:15;;;;;;;5.13;1.88;;;5.70;99.90;;;;;;4951248;29;20094;-54
2023/02/28 09:26:43;;;;;;;9.23;2.13;;;5.70;99.90;;;;;;4950632;29;20556;-57
2023/02/28 09:29:22;;;;;;;6.88;2.20;;;5.70;99.90;;;;;;4951629;29;20059;-57
2023/02/28 09:31:49;;;;;;;9.02;2.13;;;5.70;99.90;;;;;;4951577;29;20057;-56
2023/02/28 09:34:17;;;;;;;4.63;1.95;;;5.60;99.90;;;;;;4950547;29;20506;-56
2023/02/28 09:36:44;;;;;;;8.85;2.30;;;5.60;99.90;;;;;;4950153;29;20051;-55
2023/02/28 09:39:14;;;;;;;7.30;2.45;;;5.70;99.90;;;;;;4950334;29;20043;-56
2023/02/28 09:41:47;;;;;;;4.55;2.30;;;5.80;99.90;;;;;;4950801;29;20393;-57
2023/02/28 09:44:36;;;;;;;2.70;2.10;;;5.80;99.90;;;;;;4932750;29;20577;-56
2023/02/28 09:47:29;;;;;;;2.58;1.83;;;5.90;99.90;;;;;;4917690;29;20055;-55
2023/02/28 09:49:57;;;;;;;2.78;1.88;;;5.90;99.90;;;;;;4947266;29;20047;-57
2023/02/28 09:52:28;;;;;;;3.28;1.65;;;5.90;99.90;;;;;;4916114;29;20051;-57
2023/02/28 09:54:54;;;;;;;5.10;1.90;;;5.90;99.90;;;;;;4929913;29;20098;-54
2023/02/28 09:57:38;;;;;;;12.63;2.30;;;5.90;99.90;;;;;;4933110;29;20122;-54
2023/02/28 10:00:14;;;;;;;5.97;1.95;;;6.00;99.90;;;;;;4932783;29;20043;-58
2023/02/28 10:03:20;;;;;;;6.25;2.20;;;6.00;99.90;;;;;;4949881;29;20054;-56
2023/02/28 10:06:13;;;;;;;5.78;2.25;;;6.00;99.90;;;;;;4950082;29;20142;-56
2023/02/28 10:08:45;;;;;;;10.02;2.40;;;5.90;99.90;;;;;;4918728;29;20050;-57
2023/02/28 10:11:14;;;;;;;4.05;2.28;;;6.00;99.90;;;;;;4950078;28;20098;-56
2023/02/28 10:14:01;;;;;;;5.47;2.67;;;6.00;99.90;;;;;;4917478;29;20039;-54
2023/02/28 10:16:33;;;;;;;4.70;2.40;;;6.00;99.90;;;;;;4949888;29;20051;-59
2023/02/28 10:19:07;;;;;;;3.70;1.88;;;5.90;99.90;;;;;;4949774;29;20125;-56
2023/02/28 10:21:39;;;;;;;7.15;1.85;;;6.00;99.90;;;;;;4917919;29;20055;-56
2023/02/28 10:24:41;;;;;;;8.70;2.20;;;6.10;99.90;;;;;;4917164;29;20051;-56
2023/02/28 10:27:21;;;;;;;1.83;1.30;;;6.10;99.90;;;;;;4894664;29;20058;-57
2023/02/28 10:29:52;;;;;;;2.03;1.48;;;6.20;99.90;;;;;;4942096;29;20138;-54
2023/02/28 10:32:30;;;;;;;24.65;2.95;;;6.20;99.90;;;;;;4932973;29;20051;-56
2023/02/28 10:35:10;;;;;;;6.13;1.55;;;6.10;99.90;;;;;;4949288;29;20046;-54
2023/02/28 10:37:41;;;;;;;9.73;1.73;;;6.20;99.90;;;;;;4933033;29;20142;-54
2023/02/28 10:40:17;;;;;;;6.45;1.50;;;6.20;99.90;;;;;;4949726;29;20412;-54
2023/02/28 10:43:01;;;;;;;3.00;1.30;;;6.30;99.90;;;;;;4949794;29;20080;-56
2023/02/28 10:45:37;;;;;;;3.97;1.70;;;6.30;99.90;;;;;;4949552;29;20047;-52
2023/02/28 10:48:06;;;;;;;2.67;1.27;;;6.30;99.90;;;;;;4933106;29;20098;-56
2023/02/28 10:50:42;;;;;;;5.72;1.10;;;6.30;99.90;;;;;;4949394;29;20491;-54
2023/02/28 10:53:28;;;;;;;3.67;1.42;;;6.30;99.90;;;;;;4917187;29;20054;-55
2023/02/28 10:55:57;;;;;;;5.75;1.30;;;6.40;99.90;;;;;;4949150;29;20069;-56
2023/02/28 10:58:29;;;;;;;2.97;1.50;;;6.40;99.90;;;;;;4949686;29;20074;-57
2023/02/28 11:00:55;;;;;;;8.23;2.20;;;6.40;99.90;;;;;;4949512;29;20172;-54
2023/02/28 11:03:33;;;;;;;7.97;1.38;;;6.40;99.90;;;;;;4949646;29;20047;-57
2023/02/28 11:06:06;;;;;;;2.75;1.30;;;6.50;99.90;;;;;;4949283;29;20117;-57
2023/02/28 11:08:32;;;;;;;3.92;1.10;;;6.50;99.90;;;;;;4932767;29;20137;-57
2023/02/28 11:11:03;;;;;;;3.95;1.20;;;6.40;99.90;;;;;;4949273;29;20059;-57
2023/02/28 11:13:33;;;;;;;3.20;1.10;;;6.30;99.90;;;;;;4949740;29;20051;-57
2023/02/28 11:16:03;;;;;;;5.75;1.20;;;6.30;99.90;;;;;;4916775;29;20141;-57
2023/02/28 11:18:31;;;;;;;2.58;1.00;;;6.40;99.90;;;;;;4949640;29;20062;-57
2023/02/28 11:20:58;;;;;;;2.25;1.23;;;6.40;99.90;;;;;;4931897;29;20499;-56
2023/02/28 11:23:27;;;;;;;11.15;1.20;;;6.40;99.90;;;;;;4950392;28;20491;-55
2023/02/28 11:25:59;;;;;;;3.08;1.38;;;6.40;99.90;;;;;;4951860;28;20070;-56
2023/02/28 11:28:28;;;;;;;2.95;1.13;;;6.40;99.90;;;;;;4921206;29;20366;-56
2023/02/28 11:31:10;;;;;;;6.03;1.50;;;6.40;99.90;;;;;;4935985;29;20495;-57
2023/02/28 11:33:51;;;;;;;3.13;1.13;;;6.40;99.90;;;;;;4952752;29;20051;-57
2023/02/28 11:36:29;;;;;;;3.20;1.45;;;6.40;99.90;;;;;;4935213;29;20043;-57
2023/02/28 11:39:01;;;;;;;12.10;1.48;;;6.50;99.90;;;;;;4942020;29;20070;-56
2023/02/28 11:42:06;;;;;;;4.38;1.52;;;6.40;99.90;;;;;;4920737;29;20043;-55
2023/02/28 11:44:54;;;;;;;5.07;1.60;;;6.50;99.90;;;;;;4928997;29;20058;-61
2023/02/28 11:47:26;;;;;;;5.43;1.35;;;6.50;99.90;;;;;;4935260;29;20514;-58
2023/02/28 11:50:20;;;;;;;4.93;1.60;;;6.50;99.90;;;;;;4935226;29;20078;-54
2023/02/28 11:52:53;;;;;;;4.15;1.35;;;6.50;99.90;;;;;;4952232;29;20047;-52
2023/02/28 11:55:35;;;;;;;3.80;1.60;;;6.50;99.90;;;;;;4952502;29;20535;-56
2023/02/28 11:58:29;;;;;;;1.95;1.17;;;6.50;99.90;;;;;;4952093;29;20051;-54
2023/02/28 12:01:10;;;;;;;2.05;1.13;;;6.50;99.90;;;;;;4918716;29;20130;-57
2023/02/28 12:03:39;;;;;;;5.68;1.95;;;6.50;99.90;;;;;;4933187;29;20047;-56
2023/02/28 12:06:22;;;;;;;2.75;1.15;;;6.50;99.90;;;;;;4935206;29;20089;-55
2023/02/28 12:09:20;;;;;;;2.72;1.27;;;6.50;99.90;;;;;;4936283;29;20516;-56
2023/02/28 12:11:59;;;;;;;6.05;1.55;;;6.50;99.90;;;;;;4944343;28;20142;-56
2023/02/28 12:14:43;;;;;;;9.10;1.73;;;6.60;99.90;;;;;;4950867;29;20047;-57
2023/02/28 12:17:16;;;;;;;2.38;1.33;;;6.60;99.90;;;;;;4951691;29;20055;-57
2023/02/28 12:20:01;;;;;;;4.10;1.27;;;6.60;99.90;;;;;;4951974;29;20066;-57
2023/02/28 12:22:34;;;;;;;3.42;2.83;;;6.70;99.90;;;;;;4920734;29;20059;-56
2023/02/28 12:25:13;;;;;;;6.03;1.50;;;6.90;99.90;;;;;;4932057;29;20053;-56
2023/02/28 12:27:41;;;;;;;2.25;1.48;;;6.90;99.90;;;;;;4951287;29;20059;-56
2023/02/28 12:30:28;;;;;;;4.03;1.52;;;7.00;99.90;;;;;;4919433;29;20341;-56
2023/02/28 12:33:01;;;;;;;6.35;1.80;;;7.10;99.90;;;;;;4934455;29;20130;-57
2023/02/28 12:36:07;;;;;;;2.25;1.58;;;7.00;99.90;;;;;;4933698;29;20044;-55
2023/02/28 12:38:36;;;;;;;2.65;1.50;;;7.00;99.90;;;;;;4897512;29;20047;-56
2023/02/28 12:41:24;;;;;;;4.97;1.92;;;7.00;99.90;;;;;;4934421;29;20050;-55
2023/02/28 12:43:55;;;;;;;3.00;2.10;;;7.00;99.90;;;;;;4950916;29;20057;-56
2023/02/28 12:46:32;;;;;;;4.03;2.17;;;6.90;99.90;;;;;;4934472;29;20054;-56
2023/02/28 12:49:33;;;;;;;6.25;2.60;;;7.00;99.90;;;;;;4951161;29;20051;-55
2023/02/28 12:52:00;;;;;;;4.22;1.63;;;7.00;99.90;;;;;;4897425;29;20062;-56
2023/02/28 12:54:42;;;;;;;1.80;1.30;;;6.90;99.90;;;;;;4965787;28;20057;-56
2023/02/28 12:57:48;;;;;;;4.93;1.75;;;6.90;99.90;;;;;;4951219;29;20055;-57
2023/02/28 13:00:19;;;;;;;6.72;1.60;;;7.00;99.90;;;;;;4894972;29;20135;-55
2023/02/28 13:03:04;;;;;;;5.45;1.73;;;7.00;99.90;;;;;;4918575;29;20089;-56
2023/02/28 13:05:35;;;;;;;3.28;1.42;;;7.00;99.90;;;;;;4951106;29;20051;-56
2023/02/28 13:08:30;;;;;;;5.07;1.35;;;7.00;99.90;;;;;;4934214;29;20055;-55
2023/02/28 13:10:57;;;;;;;4.70;1.88;;;6.90;99.90;;;;;;4936001;29;20051;-56
2023/02/28 13:13:27;;;;;;;2.88;1.50;;;6.90;99.90;;;;;;4934101;29;20066;-57
2023/02/28 13:16:01;;;;;;;8.32;1.67;;;6.90;99.90;;;;;;4933887;29;20046;-56
2023/02/28 13:18:45;;;;;;;5.85;1.50;;;6.90;99.90;;;;;;4930594;29;20503;-57
2023/02/28 13:21:41;;;;;;;3.85;1.80;;;6.90;99.90;;;;;;4938476;29;20127;-57